Time;durP1;ratioP1;P1;durP2;ratioP2;P2;SDS_P1;SDS_P2;PMS_P1;PMS_P2;Temp;Humidity;BMP_temperature;BMP_pressure;BME280_temperature;BME280_humidity;BME280_pressure;Samples;Min_cycle;Max_cycle;Signal;HPM_P1;HPM_P2
2022/01/09 00:00:33;;;;;;;13.77;8.10;;;5.90;99.90;;;;;;5007054;28;20033;-75
2022/01/09 00:02:59;;;;;;;12.55;7.63;;;5.90;99.90;;;;;;5023146;28;20350;-75
2022/01/09 00:05:25;;;;;;;12.40;8.57;;;5.90;99.90;;;;;;5025340;28;20046;-75
2022/01/09 00:07:51;;;;;;;13.98;8.80;;;6.00;99.90;;;;;;5020425;28;20111;-75
2022/01/09 00:10:18;;;;;;;13.77;8.68;;;5.90;99.90;;;;;;5026682;28;20036;-75
2022/01/09 00:12:44;;;;;;;12.75;7.82;;;5.90;99.90;;;;;;5026260;28;20056;-75
2022/01/09 00:15:10;;;;;;;11.38;7.53;;;6.00;99.90;;;;;;5027467;28;20045;-75
2022/01/09 00:17:36;;;;;;;10.07;7.53;;;6.00;99.90;;;;;;5021392;28;20045;-76
2022/01/09 00:20:03;;;;;;;11.55;7.68;;;6.00;99.90;;;;;;5005230;28;20061;-75
2022/01/09 00:25:19;;;;;;;12.05;7.65;;;6.20;99.90;;;;;;5027600;28;20392;-75
2022/01/09 00:27:45;;;;;;;13.52;8.38;;;6.00;99.90;;;;;;5013931;28;20054;-75
2022/01/09 00:30:13;;;;;;;11.80;7.95;;;6.00;99.90;;;;;;5031273;28;20119;-75
2022/01/09 00:32:39;;;;;;;11.88;7.72;;;5.90;99.90;;;;;;5030280;28;20041;-76
2022/01/09 00:35:06;;;;;;;13.35;8.85;;;5.90;99.90;;;;;;5029850;28;20072;-75
2022/01/09 00:37:32;;;;;;;11.75;7.75;;;5.90;99.90;;;;;;5004099;28;20069;-75
2022/01/09 00:39:58;;;;;;;10.65;7.30;;;5.90;99.90;;;;;;5032208;28;20509;-76
2022/01/09 00:42:24;;;;;;;10.95;7.57;;;5.90;99.90;;;;;;5029869;28;20038;-75
2022/01/09 00:44:49;;;;;;;9.57;7.00;;;6.00;99.90;;;;;;5032276;28;20044;-76
2022/01/09 00:47:15;;;;;;;11.80;7.80;;;5.90;99.90;;;;;;5028821;28;20499;-76
2022/01/09 00:49:41;;;;;;;12.88;8.15;;;5.90;99.90;;;;;;5029815;28;20052;-75
2022/01/09 00:52:07;;;;;;;10.50;6.93;;;5.90;99.90;;;;;;5009292;28;20045;-75
2022/01/09 00:54:33;;;;;;;11.23;7.40;;;5.90;99.90;;;;;;5014964;28;20057;-75
2022/01/09 00:56:58;;;;;;;13.13;8.13;;;5.90;99.90;;;;;;5027786;28;20163;-75
2022/01/09 00:59:24;;;;;;;12.57;8.23;;;5.90;99.90;;;;;;5031687;28;20037;-75
2022/01/09 01:01:50;;;;;;;10.68;7.63;;;5.90;99.90;;;;;;5028612;28;20045;-79
2022/01/09 01:04:15;;;;;;;13.25;7.88;;;5.90;99.90;;;;;;5027026;28;20053;-74
2022/01/09 01:06:41;;;;;;;11.70;7.90;;;5.90;99.90;;;;;;5015601;28;20481;-75
2022/01/09 01:09:07;;;;;;;13.65;7.90;;;5.90;99.90;;;;;;5031351;28;20048;-75
2022/01/09 01:11:32;;;;;;;11.95;8.30;;;5.90;99.90;;;;;;5003266;28;20482;-75
2022/01/09 01:13:58;;;;;;;14.65;8.57;;;5.90;99.90;;;;;;5010257;28;20736;-75
2022/01/09 01:16:24;;;;;;;11.65;7.78;;;6.10;99.90;;;;;;5041825;28;20042;-75
2022/01/09 01:18:50;;;;;;;14.00;8.93;;;6.10;99.90;;;;;;5023438;28;20147;-75
2022/01/09 01:21:16;;;;;;;12.85;8.25;;;6.40;99.90;;;;;;5031666;28;20044;-75
2022/01/09 01:23:41;;;;;;;12.30;8.30;;;6.00;99.90;;;;;;5022503;28;20041;-75
2022/01/09 01:26:07;;;;;;;14.32;8.45;;;6.00;99.90;;;;;;5031786;28;20467;-76
2022/01/09 01:28:33;;;;;;;12.55;8.23;;;6.00;99.90;;;;;;5001507;28;20045;-75
2022/01/09 01:30:59;;;;;;;14.80;8.80;;;6.00;99.90;;;;;;5014454;28;20053;-75
2022/01/09 01:33:25;;;;;;;12.30;8.30;;;6.00;99.90;;;;;;5033356;28;20037;-75
2022/01/09 01:35:51;;;;;;;12.77;8.43;;;6.00;99.90;;;;;;5013796;28;20379;-75
2022/01/09 01:38:17;;;;;;;12.60;8.48;;;6.00;99.90;;;;;;5023358;28;20041;-76
2022/01/09 01:40:43;;;;;;;14.88;8.98;;;6.00;99.90;;;;;;5030235;28;20178;-77
2022/01/09 01:43:09;;;;;;;14.30;9.27;;;6.00;99.90;;;;;;5032570;28;20497;-76
2022/01/09 01:45:35;;;;;;;14.20;9.00;;;6.00;99.90;;;;;;5032586;28;20034;-76
2022/01/09 01:48:07;;;;;;;14.95;8.75;;;6.00;99.90;;;;;;5032189;28;20489;-76
2022/01/09 01:50:36;;;;;;;;;;;6.00;99.90;;;;;;5031514;28;20058;-76
2022/01/09 01:53:13;;;;;;;12.82;8.48;;;6.20;99.90;;;;;;5054728;28;20457;-76
2022/01/09 01:55:40;;;;;;;15.55;9.23;;;5.90;99.90;;;;;;4995844;28;20187;-77
2022/01/09 01:58:10;;;;;;;17.25;9.80;;;6.10;99.90;;;;;;5065145;28;20045;-78
2022/01/09 02:00:37;;;;;;;15.50;10.02;;;6.00;99.90;;;;;;5030822;28;20045;-76
2022/01/09 02:03:03;;;;;;;16.05;9.13;;;6.00;99.90;;;;;;5011516;28;20053;-76
2022/01/09 02:05:29;;;;;;;16.05;9.85;;;6.40;99.90;;;;;;5028128;28;20045;-76
2022/01/09 02:07:58;;;;;;;15.57;9.65;;;6.00;99.90;;;;;;5012352;28;20048;-76
2022/01/09 02:10:24;;;;;;;15.27;8.55;;;6.00;99.90;;;;;;5030994;28;20047;-76
2022/01/09 02:12:52;;;;;;;15.88;9.80;;;6.00;99.90;;;;;;5029844;28;20474;-76
2022/01/09 02:15:36;;;;;;;16.15;10.10;;;6.40;99.90;;;;;;5015307;28;20061;-76
2022/01/09 02:18:07;;;;;;;14.98;9.38;;;6.00;99.90;;;;;;5060118;28;20470;-76
2022/01/09 02:20:39;;;;;;;15.80;9.55;;;6.00;99.90;;;;;;5030684;28;20041;-76
2022/01/09 02:23:07;;;;;;;16.88;10.25;;;6.00;99.90;;;;;;5023895;28;20183;-75
2022/01/09 02:25:34;;;;;;;17.80;10.23;;;6.00;99.90;;;;;;5030177;28;20048;-76
2022/01/09 02:28:01;;;;;;;19.10;10.73;;;6.00;99.90;;;;;;5031310;28;20033;-76
2022/01/09 02:30:27;;;;;;;15.38;9.68;;;6.40;99.90;;;;;;5027378;28;20049;-76
2022/01/09 02:32:53;;;;;;;15.45;9.73;;;6.00;99.90;;;;;;5031431;28;20041;-76
2022/01/09 02:35:23;;;;;;;19.75;11.50;;;6.00;99.90;;;;;;5029430;28;20470;-76
2022/01/09 02:37:48;;;;;;;20.20;11.10;;;6.10;99.90;;;;;;5012186;28;20100;-76
2022/01/09 02:40:14;;;;;;;20.33;12.13;;;6.20;99.90;;;;;;5025134;28;20049;-76
2022/01/09 02:42:40;;;;;;;21.35;11.73;;;6.10;99.90;;;;;;5011282;28;20116;-76
2022/01/09 02:45:06;;;;;;;22.77;12.15;;;6.10;99.90;;;;;;5015246;28;20064;-76
2022/01/09 02:47:33;;;;;;;20.33;12.07;;;6.00;99.90;;;;;;5023903;28;20073;-76
2022/01/09 02:50:10;;;;;;;19.90;11.82;;;6.10;99.90;;;;;;5028262;28;20382;-76
2022/01/09 02:52:48;;;;;;;25.33;13.20;;;6.10;99.90;;;;;;5027714;28;20243;-76
2022/01/09 02:55:15;;;;;;;22.30;11.80;;;6.10;99.90;;;;;;5029662;28;20049;-76
2022/01/09 02:57:41;;;;;;;24.85;12.38;;;6.10;99.90;;;;;;5025220;28;20041;-76
2022/01/09 03:00:19;;;;;;;25.05;13.35;;;6.10;99.90;;;;;;5030251;28;20037;-76
2022/01/09 03:02:44;;;;;;;20.23;11.07;;;6.40;99.90;;;;;;5021682;28;20045;-77
2022/01/09 03:05:11;;;;;;;26.73;14.23;;;6.10;99.90;;;;;;5031064;28;20041;-76
2022/01/09 03:07:38;;;;;;;24.70;13.13;;;6.10;99.90;;;;;;5032772;28;20053;-76
2022/01/09 03:10:05;;;;;;;25.65;13.57;;;6.10;99.90;;;;;;5030940;28;20130;-76
2022/01/09 03:12:31;;;;;;;26.75;13.77;;;6.10;99.90;;;;;;5037017;28;20041;-76
2022/01/09 03:14:56;;;;;;;28.33;13.50;;;6.10;99.90;;;;;;5033529;28;20045;-76
2022/01/09 03:17:22;;;;;;;28.05;13.43;;;6.70;99.90;;;;;;5031336;28;20044;-76
2022/01/09 03:19:48;;;;;;;29.25;14.25;;;6.80;99.90;;;;;;5030752;28;20041;-76
2022/01/09 03:22:13;;;;;;;27.58;14.45;;;6.20;99.90;;;;;;5047810;28;20080;-75
2022/01/09 03:24:39;;;;;;;32.97;15.70;;;6.50;99.90;;;;;;5042900;28;20367;-75
2022/01/09 03:27:05;;;;;;;30.48;14.98;;;6.30;99.90;;;;;;5031057;28;20099;-75
2022/01/09 03:29:31;;;;;;;33.47;15.57;;;6.30;99.90;;;;;;5030799;28;20057;-75
2022/01/09 03:31:57;;;;;;;30.33;14.18;;;6.50;99.90;;;;;;5047324;28;20047;-76
2022/01/09 03:34:23;;;;;;;37.78;16.98;;;6.30;99.90;;;;;;5021892;28;20048;-76
2022/01/09 03:36:49;;;;;;;34.78;15.00;;;6.30;99.90;;;;;;5030421;28;20045;-76
2022/01/09 03:39:14;;;;;;;32.85;14.77;;;6.60;99.90;;;;;;5030401;28;20041;-75
2022/01/09 03:41:40;;;;;;;34.83;14.80;;;6.30;99.90;;;;;;5047171;28;20068;-76
2022/01/09 03:44:06;;;;;;;37.83;15.95;;;6.50;99.90;;;;;;5014088;28;20037;-76
2022/01/09 03:46:31;;;;;;;37.70;14.38;;;7.10;99.90;;;;;;5020962;28;20052;-76
2022/01/09 03:48:57;;;;;;;33.65;12.98;;;6.70;99.90;;;;;;5032578;28;20492;-76
2022/01/09 03:51:25;;;;;;;30.73;11.48;;;6.50;99.90;;;;;;5047415;28;20037;-76
2022/01/09 03:53:52;;;;;;;36.53;12.70;;;7.10;99.90;;;;;;5030643;28;20196;-76
2022/01/09 03:56:17;;;;;;;40.15;13.88;;;6.60;99.90;;;;;;5043908;28;20045;-76
2022/01/09 03:58:43;;;;;;;43.00;15.52;;;6.60;99.90;;;;;;5016036;28;20482;-76
2022/01/09 04:01:09;;;;;;;30.13;13.05;;;6.60;99.90;;;;;;5030338;28;20046;-76
2022/01/09 04:03:36;;;;;;;26.63;8.45;;;6.50;99.90;;;;;;5011351;28;20385;-76
2022/01/09 04:06:02;;;;;;;25.60;8.18;;;6.70;99.90;;;;;;5030676;28;20041;-76
2022/01/09 04:08:29;;;;;;;23.45;8.32;;;6.80;99.90;;;;;;5013367;28;20128;-76
2022/01/09 04:10:55;;;;;;;25.95;8.13;;;6.90;99.90;;;;;;5044160;28;20120;-75
2022/01/09 04:13:21;;;;;;;24.73;5.38;;;6.90;99.90;;;;;;5029278;28;20041;-76
2022/01/09 04:15:48;;;;;;;24.33;5.88;;;6.90;99.90;;;;;;5023614;28;20449;-75
2022/01/09 04:18:19;;;;;;;25.08;5.70;;;7.20;99.90;;;;;;5031852;28;20534;-75
2022/01/09 04:20:46;;;;;;;19.73;4.77;;;7.00;99.90;;;;;;5029801;28;20049;-75
2022/01/09 04:23:12;;;;;;;17.27;4.40;;;7.00;99.90;;;;;;5030409;28;20052;-75
2022/01/09 04:25:42;;;;;;;16.63;3.63;;;7.00;99.90;;;;;;5037138;28;20041;-75
2022/01/09 04:28:08;;;;;;;17.38;3.58;;;7.10;99.90;;;;;;5031007;28;20034;-75
2022/01/09 04:30:34;;;;;;;16.85;3.47;;;7.10;99.90;;;;;;5029913;28;20076;-75
2022/01/09 04:33:00;;;;;;;19.63;3.10;;;7.10;99.90;;;;;;5029974;28;20073;-75
2022/01/09 04:35:25;;;;;;;12.00;2.78;;;7.20;99.90;;;;;;5030213;28;20104;-74
2022/01/09 04:37:53;;;;;;;16.02;2.47;;;7.20;99.90;;;;;;5030214;28;20048;-75
2022/01/09 04:40:20;;;;;;;10.27;2.13;;;7.20;99.90;;;;;;5029397;28;20046;-75
2022/01/09 04:42:50;;;;;;;12.23;3.03;;;7.20;99.90;;;;;;5029806;28;20542;-75
2022/01/09 04:45:18;;;;;;;21.27;2.90;;;7.20;99.90;;;;;;5030274;28;20041;-75
2022/01/09 04:47:47;;;;;;;18.88;2.00;;;7.20;99.90;;;;;;5013522;28;20501;-75
2022/01/09 04:50:19;;;;;;;21.52;2.30;;;7.20;99.90;;;;;;5007971;28;20359;-75
2022/01/09 04:52:46;;;;;;;13.75;2.22;;;7.70;99.90;;;;;;5010101;28;20060;-75
2022/01/09 04:55:12;;;;;;;18.30;2.55;;;7.30;99.90;;;;;;5009518;28;20091;-74
2022/01/09 04:57:37;;;;;;;15.77;2.67;;;7.40;99.90;;;;;;5031386;28;20045;-74
2022/01/09 05:00:06;;;;;;;21.67;2.65;;;7.30;99.90;;;;;;5032055;28;20124;-74
2022/01/09 05:02:32;;;;;;;22.88;2.72;;;7.30;99.90;;;;;;5033472;28;20041;-74
2022/01/09 05:04:58;;;;;;;22.95;2.72;;;7.40;99.90;;;;;;5016162;28;21217;-74
2022/01/09 05:07:23;;;;;;;25.00;3.45;;;7.40;99.90;;;;;;5033532;28;20029;-74
2022/01/09 05:09:49;;;;;;;22.83;2.45;;;7.50;99.90;;;;;;5033343;28;20073;-74
2022/01/09 05:12:15;;;;;;;27.27;3.55;;;7.40;99.90;;;;;;5033245;28;20478;-74
2022/01/09 05:14:41;;;;;;;23.02;3.38;;;7.50;99.90;;;;;;5016895;28;20049;-74
2022/01/09 05:17:06;;;;;;;29.63;3.22;;;7.50;99.90;;;;;;5034456;28;20390;-74
2022/01/09 05:19:34;;;;;;;37.30;5.28;;;7.60;99.90;;;;;;5016393;28;20466;-74
2022/01/09 05:22:01;;;;;;;31.00;4.45;;;7.70;99.90;;;;;;5033106;28;20159;-74
2022/01/09 05:24:27;;;;;;;33.95;4.57;;;7.70;99.90;;;;;;5033259;28;20068;-75
2022/01/09 05:26:54;;;;;;;35.53;3.22;;;7.80;99.90;;;;;;5000706;28;20470;-75
2022/01/09 05:29:20;;;;;;;34.03;3.80;;;8.10;99.90;;;;;;5035849;28;20145;-75
2022/01/09 05:31:48;;;;;;;38.67;4.85;;;8.00;99.90;;;;;;5032969;28;20060;-74
2022/01/09 05:34:17;;;;;;;36.38;3.80;;;7.80;99.90;;;;;;5033179;28;20059;-74
2022/01/09 05:36:43;;;;;;;37.70;4.78;;;7.90;99.90;;;;;;5012680;28;20045;-74
2022/01/09 05:39:09;;;;;;;24.83;3.90;;;7.90;99.90;;;;;;5040044;28;20393;-74
2022/01/09 05:41:35;;;;;;;27.45;3.85;;;7.90;99.90;;;;;;5012973;28;20034;-74
2022/01/09 05:44:01;;;;;;;25.08;3.45;;;7.90;99.90;;;;;;5029764;28;20049;-75
2022/01/09 05:46:27;;;;;;;32.72;3.60;;;8.00;99.90;;;;;;5033553;28;20056;-75
2022/01/09 05:48:53;;;;;;;28.38;3.80;;;8.10;99.90;;;;;;5039363;28;20104;-75
2022/01/09 05:51:18;;;;;;;24.30;3.17;;;8.00;99.90;;;;;;5042484;28;20053;-75
2022/01/09 05:53:44;;;;;;;28.80;3.55;;;8.00;99.90;;;;;;5032325;28;20375;-75
2022/01/09 05:56:10;;;;;;;29.02;3.88;;;8.30;99.90;;;;;;5032700;28;20041;-75
2022/01/09 05:58:36;;;;;;;34.22;4.43;;;7.90;99.90;;;;;;5002713;28;20087;-75
2022/01/09 06:01:03;;;;;;;34.63;3.92;;;7.90;99.90;;;;;;5037906;28;20129;-75
2022/01/09 06:03:29;;;;;;;30.58;3.33;;;7.90;99.90;;;;;;5016037;28;20026;-74
2022/01/09 06:05:55;;;;;;;23.80;3.22;;;7.90;99.90;;;;;;5032470;28;20048;-75
2022/01/09 06:08:21;;;;;;;28.67;3.50;;;7.80;99.90;;;;;;5015479;28;20120;-75
2022/01/09 06:10:47;;;;;;;28.60;3.30;;;7.80;99.90;;;;;;4996201;28;20042;-75
2022/01/09 06:13:12;;;;;;;25.85;2.90;;;7.80;99.90;;;;;;5029378;28;20045;-75
2022/01/09 06:15:38;;;;;;;26.90;3.60;;;7.80;99.90;;;;;;5032060;28;20033;-75
2022/01/09 06:18:05;;;;;;;22.08;2.90;;;7.70;99.90;;;;;;5032218;28;20045;-75
2022/01/09 06:20:30;;;;;;;24.13;3.10;;;7.70;99.90;;;;;;5031681;28;20390;-75
2022/01/09 06:22:56;;;;;;;33.67;3.65;;;7.70;99.90;;;;;;5032099;28;20041;-74
2022/01/09 06:25:22;;;;;;;24.65;3.20;;;7.70;99.90;;;;;;5031973;28;20042;-74
2022/01/09 06:27:47;;;;;;;20.77;3.50;;;7.70;99.90;;;;;;5015434;28;20538;-74
2022/01/09 06:30:14;;;;;;;22.88;3.75;;;7.60;99.90;;;;;;5021655;28;20068;-74
2022/01/09 06:32:39;;;;;;;23.50;2.78;;;7.60;99.90;;;;;;5035572;28;20044;-74
2022/01/09 06:35:06;;;;;;;31.20;3.85;;;7.60;99.90;;;;;;5012172;28;20121;-74
2022/01/09 06:37:32;;;;;;;20.13;3.00;;;7.60;99.90;;;;;;5027380;28;20100;-74
2022/01/09 06:39:58;;;;;;;12.20;2.22;;;7.60;99.90;;;;;;5031228;28;20049;-74
2022/01/09 06:42:24;;;;;;;28.05;2.95;;;7.50;99.90;;;;;;5035481;28;20470;-74
2022/01/09 06:44:49;;;;;;;25.00;3.60;;;7.50;99.90;;;;;;5031759;28;20094;-74
2022/01/09 06:47:15;;;;;;;19.48;2.85;;;7.40;99.90;;;;;;5015301;28;20053;-74
2022/01/09 06:49:41;;;;;;;18.50;2.70;;;7.80;99.90;;;;;;5031118;28;20041;-74
2022/01/09 06:52:07;;;;;;;26.55;3.25;;;7.90;99.90;;;;;;5015095;28;20046;-74
2022/01/09 06:54:34;;;;;;;26.20;3.35;;;7.40;99.90;;;;;;5031204;28;20052;-74
2022/01/09 06:57:00;;;;;;;28.48;2.75;;;7.40;99.90;;;;;;5031164;28;20040;-74
2022/01/09 06:59:26;;;;;;;22.05;2.83;;;7.30;99.90;;;;;;5030996;28;20052;-74
2022/01/09 07:01:51;;;;;;;19.05;2.30;;;7.30;99.90;;;;;;5040417;28;20363;-74
2022/01/09 07:04:17;;;;;;;27.77;3.53;;;7.30;99.90;;;;;;5015179;28;20064;-75
2022/01/09 07:06:43;;;;;;;21.95;2.97;;;7.20;99.90;;;;;;5013168;28;20046;-74
2022/01/09 07:09:09;;;;;;;14.95;2.47;;;7.50;99.90;;;;;;5014246;28;20041;-74
2022/01/09 07:11:34;;;;;;;19.92;3.35;;;7.40;99.90;;;;;;5033269;28;20077;-74
2022/01/09 07:14:00;;;;;;;21.48;3.03;;;7.20;99.90;;;;;;5031175;28;20037;-73
2022/01/09 07:16:26;;;;;;;20.70;2.33;;;7.20;99.90;;;;;;5033710;28;20502;-74
2022/01/09 07:18:52;;;;;;;16.52;2.28;;;7.20;99.90;;;;;;5014325;28;20037;-74
2022/01/09 07:21:17;;;;;;;23.25;2.70;;;7.10;99.90;;;;;;5014029;28;20048;-74
2022/01/09 07:23:43;;;;;;;20.75;2.30;;;7.10;99.90;;;;;;5014065;28;20488;-74
2022/01/09 07:26:09;;;;;;;15.70;1.85;;;7.20;99.90;;;;;;5031087;28;20038;-74
2022/01/09 07:28:35;;;;;;;23.20;3.17;;;7.40;99.90;;;;;;5010889;28;20037;-73
2022/01/09 07:31:00;;;;;;;16.10;2.65;;;7.00;99.90;;;;;;5028279;28;20523;-73
2022/01/09 07:33:26;;;;;;;22.20;2.72;;;7.00;99.90;;;;;;5033718;28;20042;-73
2022/01/09 07:35:52;;;;;;;19.05;2.67;;;7.00;99.90;;;;;;5014661;28;20064;-73
2022/01/09 07:38:18;;;;;;;21.42;3.47;;;7.00;99.90;;;;;;5029838;28;20470;-73
2022/01/09 07:40:44;;;;;;;18.38;2.42;;;7.20;99.90;;;;;;4981779;28;20050;-73
2022/01/09 07:43:09;;;;;;;17.15;2.00;;;7.10;99.90;;;;;;5030844;28;20045;-73
2022/01/09 07:45:35;;;;;;;16.48;2.83;;;6.90;99.90;;;;;;5030853;28;20069;-73
2022/01/09 07:48:02;;;;;;;18.48;2.30;;;6.80;99.90;;;;;;4997558;28;20423;-74
2022/01/09 07:50:28;;;;;;;16.17;1.75;;;6.90;99.90;;;;;;5030330;28;20037;-73
2022/01/09 07:52:55;;;;;;;15.85;2.65;;;6.80;99.90;;;;;;5035942;28;20052;-74
2022/01/09 07:55:22;;;;;;;20.23;2.72;;;7.30;99.90;;;;;;5017019;28;20053;-73
2022/01/09 07:57:49;;;;;;;15.55;1.85;;;6.80;99.90;;;;;;5013122;28;20041;-72
2022/01/09 08:00:16;;;;;;;25.10;3.17;;;7.10;99.90;;;;;;5029240;28;20042;-74
2022/01/09 08:02:42;;;;;;;16.30;2.38;;;6.80;99.90;;;;;;5032153;28;20062;-72
2022/01/09 08:05:09;;;;;;;23.02;2.92;;;6.80;99.90;;;;;;5011036;28;20546;-72
2022/01/09 08:07:35;;;;;;;23.20;2.42;;;6.70;99.90;;;;;;5004883;28;20076;-72
2022/01/09 08:10:00;;;;;;;21.45;2.55;;;6.70;99.90;;;;;;5011231;28;20070;-72
2022/01/09 08:12:26;;;;;;;19.27;2.60;;;6.80;99.90;;;;;;5028259;28;20500;-73
2022/01/09 08:14:52;;;;;;;22.83;3.22;;;6.70;99.90;;;;;;5030635;28;20320;-73
2022/01/09 08:17:18;;;;;;;15.63;2.20;;;6.70;99.90;;;;;;5026650;28;20478;-72
2022/01/09 08:19:44;;;;;;;19.88;2.33;;;6.70;99.90;;;;;;5032668;28;20114;-73
2022/01/09 08:22:10;;;;;;;22.15;2.10;;;6.70;99.90;;;;;;5010877;28;20049;-73
2022/01/09 08:24:36;;;;;;;15.88;2.15;;;6.80;99.90;;;;;;5013394;28;20042;-72
2022/01/09 08:27:03;;;;;;;20.73;2.13;;;6.70;99.90;;;;;;5013963;28;20048;-73
2022/01/09 08:29:28;;;;;;;13.10;2.53;;;6.60;99.90;;;;;;5013524;28;20352;-73
2022/01/09 08:31:54;;;;;;;20.13;2.60;;;6.70;99.90;;;;;;5017834;28;20041;-73
2022/01/09 08:34:20;;;;;;;18.70;2.00;;;6.70;99.90;;;;;;5043329;28;20045;-73
2022/01/09 08:36:46;;;;;;;16.67;2.20;;;6.90;99.90;;;;;;5062313;28;20056;-73
2022/01/09 08:39:12;;;;;;;13.90;2.22;;;6.60;99.90;;;;;;5033079;28;20116;-73
2022/01/09 08:41:39;;;;;;;17.27;2.13;;;6.70;99.90;;;;;;5032573;28;20033;-73
2022/01/09 08:44:06;;;;;;;22.38;2.58;;;6.60;99.90;;;;;;5028729;28;20034;-73
2022/01/09 08:46:33;;;;;;;18.17;2.60;;;6.60;99.90;;;;;;5017371;28;20033;-72
2022/01/09 08:49:00;;;;;;;19.00;3.08;;;6.70;99.90;;;;;;5032995;28;20065;-72
2022/01/09 08:51:28;;;;;;;13.35;1.83;;;6.60;99.90;;;;;;5031044;28;20482;-72
2022/01/09 08:53:54;;;;;;;16.15;2.33;;;7.00;99.90;;;;;;5012046;28;20049;-72
2022/01/09 08:56:23;;;;;;;22.60;2.40;;;6.60;99.90;;;;;;5025680;28;20048;-72
2022/01/09 08:58:49;;;;;;;16.35;2.28;;;6.60;99.90;;;;;;5027588;28;20088;-72
2022/01/09 09:01:15;;;;;;;17.30;2.75;;;6.60;99.90;;;;;;5029687;28;20128;-72
2022/01/09 09:03:41;;;;;;;15.68;2.78;;;6.60;99.90;;;;;;5013207;28;20049;-72
2022/01/09 09:06:16;;;;;;;14.57;2.38;;;6.60;99.90;;;;;;5009372;28;20049;-72
2022/01/09 09:08:43;;;;;;;12.50;2.08;;;6.60;99.90;;;;;;5011389;28;20066;-72
2022/01/09 09:11:11;;;;;;;10.57;2.10;;;6.60;99.90;;;;;;5013843;28;20038;-72
2022/01/09 09:13:38;;;;;;;20.67;2.67;;;6.60;99.90;;;;;;5047010;28;20046;-72
2022/01/09 09:16:05;;;;;;;16.80;2.38;;;6.60;99.90;;;;;;5010819;28;20120;-72
2022/01/09 09:18:30;;;;;;;16.90;2.20;;;6.70;99.90;;;;;;5026235;28;20092;-72
2022/01/09 09:20:57;;;;;;;20.80;2.25;;;6.70;99.90;;;;;;5027332;28;20081;-72
2022/01/09 09:23:23;;;;;;;20.92;3.05;;;6.70;99.90;;;;;;4981928;28;20044;-72
2022/01/09 09:25:49;;;;;;;13.20;1.92;;;6.70;99.90;;;;;;5031643;28;20081;-72
2022/01/09 09:28:14;;;;;;;11.30;1.95;;;6.70;99.90;;;;;;5031111;28;20081;-72
2022/01/09 09:30:41;;;;;;;15.18;2.40;;;6.70;99.90;;;;;;5033241;28;20509;-72
2022/01/09 09:33:07;;;;;;;12.68;1.73;;;6.70;99.90;;;;;;5029666;28;20045;-72
2022/01/09 09:35:33;;;;;;;20.48;2.13;;;6.70;99.90;;;;;;5033663;28;20046;-72
2022/01/09 09:37:59;;;;;;;13.27;1.98;;;6.70;99.90;;;;;;5024326;28;20050;-72
2022/01/09 09:40:26;;;;;;;13.27;2.10;;;6.60;99.90;;;;;;4996908;28;20042;-72
2022/01/09 09:42:55;;;;;;;11.23;1.77;;;6.70;99.90;;;;;;5016450;28;20476;-73
2022/01/09 09:45:23;;;;;;;13.30;1.67;;;7.10;99.90;;;;;;5028792;28;20041;-73
2022/01/09 09:47:50;;;;;;;14.40;2.58;;;6.60;99.90;;;;;;5043871;28;20087;-73
2022/01/09 09:50:17;;;;;;;14.40;2.33;;;6.70;99.90;;;;;;5032156;28;20099;-73
2022/01/09 09:52:44;;;;;;;12.25;1.88;;;6.70;99.90;;;;;;5015029;28;20592;-73
2022/01/09 09:55:11;;;;;;;17.15;2.47;;;6.70;99.90;;;;;;5035172;28;20042;-70
2022/01/09 09:57:37;;;;;;;11.68;2.00;;;6.80;99.90;;;;;;5028329;28;20102;-71
2022/01/09 10:00:05;;;;;;;14.82;1.90;;;6.80;99.90;;;;;;5027565;28;20080;-69
2022/01/09 10:02:51;;;;;;;7.75;1.80;;;6.90;99.90;;;;;;5031912;28;20044;-67
2022/01/09 10:05:23;;;;;;;14.15;1.50;;;6.90;99.90;;;;;;5032419;28;20128;-69
2022/01/09 10:08:04;;;;;;;12.57;1.77;;;7.10;99.90;;;;;;5042941;28;20076;-70
2022/01/09 10:10:32;;;;;;;15.02;1.98;;;7.00;99.90;;;;;;5015149;28;20390;-71
2022/01/09 10:13:17;;;;;;;12.90;2.00;;;7.00;99.90;;;;;;5015758;28;20045;-70
2022/01/09 10:15:45;;;;;;;12.40;2.10;;;7.10;99.90;;;;;;5027533;28;20565;-70
2022/01/09 10:18:10;;;;;;;11.63;2.35;;;7.00;99.90;;;;;;5026424;28;20156;-71
2022/01/09 10:20:36;;;;;;;15.38;2.10;;;7.00;99.90;;;;;;5038453;28;20125;-71
2022/01/09 10:23:02;;;;;;;14.82;1.88;;;7.00;99.90;;;;;;5013080;28;20125;-70
2022/01/09 10:25:32;;;;;;;14.98;1.88;;;7.00;99.90;;;;;;5028889;28;20124;-71
2022/01/09 10:28:08;;;;;;;9.27;1.65;;;7.00;99.90;;;;;;5034873;28;20055;-70
2022/01/09 10:30:34;;;;;;;18.42;2.88;;;7.00;99.90;;;;;;5033496;28;20039;-70
2022/01/09 10:33:03;;;;;;;12.35;2.03;;;7.00;99.90;;;;;;5036427;28;20108;-68
2022/01/09 10:35:30;;;;;;;9.98;1.67;;;7.00;99.90;;;;;;5028723;28;20037;-69
2022/01/09 10:38:09;;;;;;;11.07;1.67;;;7.00;99.90;;;;;;5032616;28;20041;-73
2022/01/09 10:40:36;;;;;;;10.90;1.77;;;7.10;99.90;;;;;;5025177;28;20478;-73
2022/01/09 10:43:19;;;;;;;13.50;1.90;;;7.00;99.90;;;;;;5013699;28;20076;-74
2022/01/09 10:45:58;;;;;;;12.02;1.60;;;7.00;99.90;;;;;;5021009;28;20135;-75
2022/01/09 10:48:26;;;;;;;15.05;1.92;;;7.00;99.90;;;;;;5007603;28;20048;-76
2022/01/09 10:50:54;;;;;;;6.85;1.90;;;7.00;99.90;;;;;;5025696;28;20096;-72
2022/01/09 10:53:31;;;;;;;15.73;2.22;;;7.80;99.90;;;;;;5015588;28;20435;-69
2022/01/09 10:56:08;;;;;;;16.67;1.95;;;7.00;99.90;;;;;;5022599;28;20098;-69
2022/01/09 10:58:40;;;;;;;9.95;2.08;;;7.10;99.90;;;;;;5029690;28;20045;-68
2022/01/09 11:01:07;;;;;;;16.70;2.67;;;7.10;99.90;;;;;;5031104;28;20045;-69
2022/01/09 11:03:33;;;;;;;13.45;1.67;;;7.20;99.90;;;;;;5030892;28;20037;-68
2022/01/09 11:06:01;;;;;;;12.18;2.25;;;7.20;99.90;;;;;;5016220;28;20474;-68
2022/01/09 11:08:29;;;;;;;11.63;1.48;;;7.20;99.90;;;;;;5021763;28;20034;-68
2022/01/09 11:10:55;;;;;;;14.05;1.70;;;7.20;99.90;;;;;;4998614;28;20045;-68
2022/01/09 11:13:23;;;;;;;7.47;1.63;;;7.20;99.90;;;;;;5013268;28;20046;-68
2022/01/09 11:18:37;;;;;;;9.38;1.63;;;7.20;99.90;;;;;;5038480;28;20056;-68
2022/01/09 11:21:02;;;;;;;12.90;1.45;;;7.30;99.90;;;;;;5013124;28;20094;-68
2022/01/09 11:23:43;;;;;;;12.23;1.52;;;7.50;99.90;;;;;;5030746;28;20045;-69
2022/01/09 11:26:13;;;;;;;8.77;1.40;;;7.30;99.90;;;;;;5030694;28;20041;-68
2022/01/09 11:28:41;;;;;;;7.00;1.45;;;7.40;99.90;;;;;;5038356;28;20029;-68
2022/01/09 11:31:23;;;;;;;9.07;1.77;;;7.40;99.90;;;;;;5017035;28;20053;-68
2022/01/09 11:34:22;;;;;;;9.80;1.60;;;7.40;99.90;;;;;;5024086;28;20431;-67
2022/01/09 11:37:00;;;;;;;12.15;1.80;;;7.50;99.90;;;;;;5049146;28;20045;-67
2022/01/09 11:39:35;;;;;;;8.73;1.40;;;7.60;99.90;;;;;;5029221;28;20052;-71
2022/01/09 11:42:10;;;;;;;11.70;1.92;;;7.60;99.90;;;;;;5030595;28;20045;-69
2022/01/09 11:44:49;;;;;;;15.98;1.60;;;7.80;99.90;;;;;;5029082;28;20044;-69
2022/01/09 11:47:16;;;;;;;14.50;1.88;;;7.90;99.90;;;;;;5030338;28;20052;-70
2022/01/09 11:49:53;;;;;;;8.20;1.23;;;8.00;99.90;;;;;;5034955;28;20045;-69
2022/01/09 11:52:20;;;;;;;9.13;1.77;;;8.00;99.90;;;;;;5015545;28;20057;-69
2022/01/09 11:54:54;;;;;;;13.35;2.17;;;8.10;99.90;;;;;;4995224;28;20513;-68
2022/01/09 11:57:47;;;;;;;15.32;2.20;;;8.30;99.90;;;;;;5030369;28;20046;-69
2022/01/09 12:00:33;;;;;;;7.82;1.30;;;8.50;99.90;;;;;;5038339;28;20047;-69
2022/01/09 12:03:00;;;;;;;11.80;1.80;;;8.60;99.90;;;;;;5030524;28;20037;-69
2022/01/09 12:05:26;;;;;;;11.15;1.80;;;8.50;99.90;;;;;;5029836;28;20047;-70
2022/01/09 12:07:53;;;;;;;6.03;1.40;;;8.50;99.90;;;;;;5013980;28;20037;-69
2022/01/09 12:10:38;;;;;;;8.60;1.60;;;8.50;99.90;;;;;;5040567;28;20045;-69
2022/01/09 12:13:25;;;;;;;10.05;1.30;;;8.40;99.90;;;;;;5033994;28;20379;-68
2022/01/09 12:15:51;;;;;;;10.18;1.90;;;8.50;99.90;;;;;;5031916;28;20061;-68
2022/01/09 12:18:41;;;;;;;8.82;1.60;;;8.40;99.90;;;;;;5033332;28;20033;-69
2022/01/09 12:21:08;;;;;;;11.30;1.67;;;8.30;99.90;;;;;;5039638;28;20497;-69
2022/01/09 12:23:34;;;;;;;6.30;1.35;;;8.10;99.90;;;;;;5024174;28;20045;-70
2022/01/09 12:25:59;;;;;;;12.02;1.58;;;7.90;99.90;;;;;;5034235;28;20042;-69
2022/01/09 12:28:38;;;;;;;7.53;1.20;;;7.80;99.90;;;;;;5033738;28;20041;-70
2022/01/09 12:31:04;;;;;;;11.93;1.80;;;7.80;99.90;;;;;;5034671;28;20048;-69
2022/01/09 12:33:31;;;;;;;6.68;1.17;;;8.00;99.90;;;;;;5022025;28;20049;-69
2022/01/09 12:36:06;;;;;;;9.70;1.70;;;8.00;99.90;;;;;;5031931;28;20100;-69
2022/01/09 12:38:48;;;;;;;10.07;1.65;;;8.30;99.90;;;;;;5033014;28;20471;-70
2022/01/09 12:41:16;;;;;;;7.78;1.83;;;8.40;99.90;;;;;;5033500;28;20413;-69
2022/01/09 12:43:43;;;;;;;9.80;1.88;;;8.60;99.90;;;;;;5025913;28;20047;-69
2022/01/09 12:46:09;;;;;;;12.98;1.80;;;8.80;99.90;;;;;;5014030;28;20038;-70
2022/01/09 12:48:35;;;;;;;12.25;2.78;;;8.90;99.90;;;;;;5049413;28;20045;-69
2022/01/09 12:51:13;;;;;;;9.55;1.48;;;8.90;99.90;;;;;;5016970;28;20091;-69
2022/01/09 12:53:40;;;;;;;9.98;1.65;;;8.90;99.90;;;;;;5037983;28;20104;-68